sensor_id;sensor_type;location;lat;lon;timestamp;pressure;altitude;pressure_sealevel;temperature;humidity
76694;BME280;65625;52.136;5.424;2023-04-06T00:02:08;101922.69;;;2.15;79.61
76694;BME280;65625;52.136;5.424;2023-04-06T00:04:34;101920.97;;;2.12;79.16
76694;BME280;65625;52.136;5.424;2023-04-06T00:07:01;101922.78;;;2.10;79.08
76694;BME280;65625;52.136;5.424;2023-04-06T00:09:27;101911.38;;;2.05;79.41
76694;BME280;65625;52.136;5.424;2023-04-06T00:11:54;101913.22;;;2.03;79.36
76694;BME280;65625;52.136;5.424;2023-04-06T00:14:21;101915.06;;;2.00;80.10
76694;BME280;65625;52.136;5.424;2023-04-06T00:16:47;101922.16;;;1.99;79.73
76694;BME280;65625;52.136;5.424;2023-04-06T00:19:14;101915.16;;;1.95;79.85
76694;BME280;65625;52.136;5.424;2023-04-06T00:21:40;101911.59;;;1.96;80.29
76694;BME280;65625;52.136;5.424;2023-04-06T00:24:07;101902.84;;;1.91;79.92
76694;BME280;65625;52.136;5.424;2023-04-06T00:26:34;101905.53;;;1.90;80.17
76694;BME280;65625;52.136;5.424;2023-04-06T00:29:01;101905.63;;;1.87;79.86
76694;BME280;65625;52.136;5.424;2023-04-06T00:31:31;101900.34;;;1.85;79.96
76694;BME280;65625;52.136;5.424;2023-04-06T00:33:59;101894.97;;;1.87;80.62
76694;BME280;65625;52.136;5.424;2023-04-06T00:36:26;101894.25;;;1.79;80.74
76694;BME280;65625;52.136;5.424;2023-04-06T00:38:53;101895.22;;;1.76;80.42
76694;BME280;65625;52.136;5.424;2023-04-06T00:41:19;101893.47;;;1.75;80.74
76694;BME280;65625;52.136;5.424;2023-04-06T00:43:46;101888.09;;;1.77;81.22
76694;BME280;65625;52.136;5.424;2023-04-06T00:46:13;101884.53;;;1.78;80.97
76694;BME280;65625;52.136;5.424;2023-04-06T00:48:40;101881.00;;;1.76;81.07
76694;BME280;65625;52.136;5.424;2023-04-06T00:51:07;101873.09;;;1.73;80.83
76694;BME280;65625;52.136;5.424;2023-04-06T00:53:33;101871.38;;;1.72;81.67
76694;BME280;65625;52.136;5.424;2023-04-06T00:56:00;101873.22;;;1.68;80.86
76694;BME280;65625;52.136;5.424;2023-04-06T00:58:33;101867.97;;;1.65;81.34
76694;BME280;65625;52.136;5.424;2023-04-06T01:01:05;101867.13;;;1.63;81.45
76694;BME280;65625;52.136;5.424;2023-04-06T01:03:33;101860.97;;;1.61;81.84
76694;BME280;65625;52.136;5.424;2023-04-06T01:06:00;101871.53;;;1.64;82.16
76694;BME280;65625;52.136;5.424;2023-04-06T01:08:33;101866.28;;;1.61;81.63
76694;BME280;65625;52.136;5.424;2023-04-06T01:11:14;101860.00;;;1.64;82.11
76694;BME280;65625;52.136;5.424;2023-04-06T01:13:40;101857.34;;;1.64;81.24
76694;BME280;65625;52.136;5.424;2023-04-06T01:16:14;101856.44;;;1.65;81.71
76694;BME280;65625;52.136;5.424;2023-04-06T01:18:56;101847.53;;;1.66;81.47
76694;BME280;65625;52.136;5.424;2023-04-06T01:21:27;101851.97;;;1.67;82.38
76694;BME280;65625;52.136;5.424;2023-04-06T01:24:12;101849.22;;;1.70;81.99
76694;BME280;65625;52.136;5.424;2023-04-06T01:26:53;101840.31;;;1.71;82.81
76694;BME280;65625;52.136;5.424;2023-04-06T01:29:20;101843.75;;;1.76;82.43
76694;BME280;65625;52.136;5.424;2023-04-06T01:31:46;101840.09;;;1.81;82.63
76694;BME280;65625;52.136;5.424;2023-04-06T01:34:14;101835.56;;;1.85;82.38
76694;BME280;65625;52.136;5.424;2023-04-06T01:36:40;101837.28;;;1.87;82.75
76694;BME280;65625;52.136;5.424;2023-04-06T01:39:24;101829.19;;;1.92;82.79
76694;BME280;65625;52.136;5.424;2023-04-06T01:41:51;101824.63;;;1.97;83.04
76694;BME280;65625;52.136;5.424;2023-04-06T01:44:20;101821.91;;;2.00;82.94
76694;BME280;65625;52.136;5.424;2023-04-06T01:46:53;101825.28;;;2.06;82.85
76694;BME280;65625;52.136;5.424;2023-04-06T01:49:20;101823.41;;;2.10;83.30
76694;BME280;65625;52.136;5.424;2023-04-06T01:51:51;101810.81;;;2.16;82.43
76694;BME280;65625;52.136;5.424;2023-04-06T01:54:20;101810.78;;;2.18;83.03
76694;BME280;65625;52.136;5.424;2023-04-06T01:57:10;101802.72;;;2.21;82.27
76694;BME280;65625;52.136;5.424;2023-04-06T01:59:51;101798.13;;;2.26;82.95
76694;BME280;65625;52.136;5.424;2023-04-06T02:02:23;101800.75;;;2.27;82.64
76694;BME280;65625;52.136;5.424;2023-04-06T02:04:58;101800.66;;;2.30;82.89
76694;BME280;65625;52.136;5.424;2023-04-06T02:07:25;101790.81;;;2.34;81.97
76694;BME280;65625;52.136;5.424;2023-04-06T02:09:55;101784.53;;;2.36;82.46
76694;BME280;65625;52.136;5.424;2023-04-06T02:12:33;101786.19;;;2.40;82.15
76694;BME280;65625;52.136;5.424;2023-04-06T02:15:00;101785.31;;;2.41;81.96
76694;BME280;65625;52.136;5.424;2023-04-06T02:17:27;101784.28;;;2.45;82.27
76694;BME280;65625;52.136;5.424;2023-04-06T02:19:53;101786.84;;;2.50;81.93
76694;BME280;65625;52.136;5.424;2023-04-06T02:22:20;101781.38;;;2.54;82.48
76694;BME280;65625;52.136;5.424;2023-04-06T02:24:46;101776.78;;;2.59;81.80
76694;BME280;65625;52.136;5.424;2023-04-06T02:27:14;101768.81;;;2.59;81.94
76694;BME280;65625;52.136;5.424;2023-04-06T02:29:45;101767.78;;;2.65;82.42
76694;BME280;65625;52.136;5.424;2023-04-06T02:32:13;101769.47;;;2.68;82.00
76694;BME280;65625;52.136;5.424;2023-04-06T02:34:40;101773.84;;;2.70;81.98
76694;BME280;65625;52.136;5.424;2023-04-06T02:37:06;101766.63;;;2.74;81.69
76694;BME280;65625;52.136;5.424;2023-04-06T02:39:33;101771.91;;;2.75;81.80
76694;BME280;65625;52.136;5.424;2023-04-06T02:42:00;101764.72;;;2.79;81.20
76694;BME280;65625;52.136;5.424;2023-04-06T02:44:29;101765.56;;;2.79;80.97
76694;BME280;65625;52.136;5.424;2023-04-06T02:46:55;101760.13;;;2.82;81.33
76694;BME280;65625;52.136;5.424;2023-04-06T02:49:24;101760.13;;;2.82;81.59
76694;BME280;65625;52.136;5.424;2023-04-06T02:51:54;101749.47;;;2.84;81.10
76694;BME280;65625;52.136;5.424;2023-04-06T02:54:24;101741.47;;;2.84;81.05
76694;BME280;65625;52.136;5.424;2023-04-06T02:56:51;101744.09;;;2.85;80.78
76694;BME280;65625;52.136;5.424;2023-04-06T02:59:19;101749.38;;;2.87;81.55
76694;BME280;65625;52.136;5.424;2023-04-06T03:01:56;101740.44;;;2.88;80.73
76694;BME280;65625;52.136;5.424;2023-04-06T03:04:22;101738.66;;;2.88;81.05
76694;BME280;65625;52.136;5.424;2023-04-06T03:06:53;101731.50;;;2.90;80.86
76694;BME280;65625;52.136;5.424;2023-04-06T03:09:31;101734.94;;;2.94;80.64
76694;BME280;65625;52.136;5.424;2023-04-06T03:11:57;101729.41;;;3.00;80.53
76694;BME280;65625;52.136;5.424;2023-04-06T03:14:24;101736.31;;;3.07;79.46
76694;BME280;65625;52.136;5.424;2023-04-06T03:16:50;101731.78;;;3.10;79.17
76694;BME280;65625;52.136;5.424;2023-04-06T03:19:20;101737.78;;;3.17;77.59
76694;BME280;65625;52.136;5.424;2023-04-06T03:21:48;101727.00;;;3.20;77.35
76694;BME280;65625;52.136;5.424;2023-04-06T03:24:16;101728.63;;;3.25;76.93
76694;BME280;65625;52.136;5.424;2023-04-06T03:26:42;101723.91;;;3.33;75.48
76694;BME280;65625;52.136;5.424;2023-04-06T03:29:09;101718.44;;;3.38;75.10
76694;BME280;65625;52.136;5.424;2023-04-06T03:31:36;101716.59;;;3.40;74.55
76694;BME280;65625;52.136;5.424;2023-04-06T03:34:06;101713.72;;;3.46;74.29
76694;BME280;65625;52.136;5.424;2023-04-06T03:36:35;101711.94;;;3.46;74.07
76694;BME280;65625;52.136;5.424;2023-04-06T03:39:03;101712.72;;;3.50;73.11
76694;BME280;65625;52.136;5.424;2023-04-06T03:41:33;101710.72;;;3.56;73.34
76694;BME280;65625;52.136;5.424;2023-04-06T03:44:05;101709.72;;;3.59;73.75
76694;BME280;65625;52.136;5.424;2023-04-06T03:46:32;101713.31;;;3.58;74.07
76694;BME280;65625;52.136;5.424;2023-04-06T03:48:59;101710.66;;;3.58;73.91
76694;BME280;65625;52.136;5.424;2023-04-06T03:51:26;101710.66;;;3.58;73.15
76694;BME280;65625;52.136;5.424;2023-04-06T03:53:53;101710.59;;;3.59;72.09
76694;BME280;65625;52.136;5.424;2023-04-06T03:56:19;101696.19;;;3.65;71.51
76694;BME280;65625;52.136;5.424;2023-04-06T03:58:46;101694.25;;;3.70;70.70
76694;BME280;65625;52.136;5.424;2023-04-06T04:01:19;101695.97;;;3.71;70.40
76694;BME280;65625;52.136;5.424;2023-04-06T04:03:45;101696.75;;;3.74;69.83
76694;BME280;65625;52.136;5.424;2023-04-06T04:06:15;101697.56;;;3.76;69.69
76694;BME280;65625;52.136;5.424;2023-04-06T04:08:42;101693.97;;;3.77;69.05
76694;BME280;65625;52.136;5.424;2023-04-06T04:11:08;101699.25;;;3.79;69.11
76694;BME280;65625;52.136;5.424;2023-04-06T04:13:35;101691.25;;;3.79;68.72
76694;BME280;65625;52.136;5.424;2023-04-06T04:16:04;101688.56;;;3.80;68.69
76694;BME280;65625;52.136;5.424;2023-04-06T04:18:30;101691.22;;;3.80;68.53
76694;BME280;65625;52.136;5.424;2023-04-06T04:20:57;101691.22;;;3.80;68.35
76694;BME280;65625;52.136;5.424;2023-04-06T04:23:23;101693.97;;;3.77;68.41
76694;BME280;65625;52.136;5.424;2023-04-06T04:25:50;101690.50;;;3.75;68.38
76694;BME280;65625;52.136;5.424;2023-04-06T04:28:17;101695.00;;;3.73;69.08
76694;BME280;65625;52.136;5.424;2023-04-06T04:30:46;101698.69;;;3.69;69.13
76694;BME280;65625;52.136;5.424;2023-04-06T04:33:13;101695.41;;;3.61;69.43
76694;BME280;65625;52.136;5.424;2023-04-06T04:35:40;101688.41;;;3.57;70.38
76694;BME280;65625;52.136;5.424;2023-04-06T04:38:10;101695.66;;;3.54;70.35
76694;BME280;65625;52.136;5.424;2023-04-06T04:40:40;101693.03;;;3.52;70.09
76694;BME280;65625;52.136;5.424;2023-04-06T04:43:08;101700.13;;;3.53;70.83
76694;BME280;65625;52.136;5.424;2023-04-06T04:45:35;101697.53;;;3.52;70.93
76694;BME280;65625;52.136;5.424;2023-04-06T04:48:12;101701.19;;;3.48;71.14
76694;BME280;65625;52.136;5.424;2023-04-06T04:50:59;101695.03;;;3.46;71.65
76694;BME280;65625;52.136;5.424;2023-04-06T04:53:34;101695.97;;;3.45;71.22
76694;BME280;65625;52.136;5.424;2023-04-06T04:56:11;101695.91;;;3.46;70.64
76694;BME280;65625;52.136;5.424;2023-04-06T04:58:38;101703.81;;;3.49;71.59
76694;BME280;65625;52.136;5.424;2023-04-06T05:01:04;101690.47;;;3.49;71.68
76694;BME280;65625;52.136;5.424;2023-04-06T05:03:32;101691.19;;;3.54;71.39
76694;BME280;65625;52.136;5.424;2023-04-06T05:06:05;101684.84;;;3.58;70.44
76694;BME280;65625;52.136;5.424;2023-04-06T05:08:35;101686.41;;;3.65;70.08
76694;BME280;65625;52.136;5.424;2023-04-06T05:11:02;101685.28;;;3.71;69.75
76694;BME280;65625;52.136;5.424;2023-04-06T05:13:32;101686.91;;;3.76;69.70
76694;BME280;65625;52.136;5.424;2023-04-06T05:16:04;101683.16;;;3.82;69.75
76694;BME280;65625;52.136;5.424;2023-04-06T05:18:32;101685.59;;;3.88;69.60
76694;BME280;65625;52.136;5.424;2023-04-06T05:21:00;101679.06;;;3.97;69.27
76694;BME280;65625;52.136;5.424;2023-04-06T05:23:36;101685.84;;;4.07;68.71
76694;BME280;65625;52.136;5.424;2023-04-06T05:26:02;101682.03;;;4.14;68.61
76694;BME280;65625;52.136;5.424;2023-04-06T05:28:29;101682.69;;;4.20;68.16
76694;BME280;65625;52.136;5.424;2023-04-06T05:30:55;101677.06;;;4.28;67.39
76694;BME280;65625;52.136;5.424;2023-04-06T05:33:25;101680.22;;;4.39;67.56
76694;BME280;65625;52.136;5.424;2023-04-06T05:36:01;101674.47;;;4.49;67.22
76694;BME280;65625;52.136;5.424;2023-04-06T05:38:28;101679.41;;;4.60;67.15
76694;BME280;65625;52.136;5.424;2023-04-06T05:40:58;101681.75;;;4.69;66.95
76694;BME280;65625;52.136;5.424;2023-04-06T05:43:29;101680.63;;;4.74;66.56
76694;BME280;65625;52.136;5.424;2023-04-06T05:45:57;101679.47;;;4.81;66.55
76694;BME280;65625;52.136;5.424;2023-04-06T05:48:24;101668.59;;;4.86;66.10
76694;BME280;65625;52.136;5.424;2023-04-06T05:50:51;101668.50;;;4.89;65.96
76694;BME280;65625;52.136;5.424;2023-04-06T05:53:23;101667.38;;;4.94;65.73
76694;BME280;65625;52.136;5.424;2023-04-06T05:55:55;101668.13;;;4.98;65.67
76694;BME280;65625;52.136;5.424;2023-04-06T05:58:22;101667.03;;;5.03;65.09
76694;BME280;65625;52.136;5.424;2023-04-06T06:00:57;101666.91;;;5.06;65.50
76694;BME280;65625;52.136;5.424;2023-04-06T06:03:24;101670.19;;;5.13;65.40
76694;BME280;65625;52.136;5.424;2023-04-06T06:05:59;101664.59;;;5.19;65.33
76694;BME280;65625;52.136;5.424;2023-04-06T06:08:30;101665.47;;;5.19;65.19
76694;BME280;65625;52.136;5.424;2023-04-06T06:10:58;101670.88;;;5.18;65.29
76694;BME280;65625;52.136;5.424;2023-04-06T06:13:25;101660.13;;;5.19;65.65
76694;BME280;65625;52.136;5.424;2023-04-06T06:15:52;101665.47;;;5.19;65.13
76694;BME280;65625;52.136;5.424;2023-04-06T06:18:20;101661.88;;;5.21;65.19
76694;BME280;65625;52.136;5.424;2023-04-06T06:20:49;101666.34;;;5.20;65.42
76694;BME280;65625;52.136;5.424;2023-04-06T06:23:16;101667.25;;;5.19;65.53
76694;BME280;65625;52.136;5.424;2023-04-06T06:25:43;101666.34;;;5.20;65.44
76694;BME280;65625;52.136;5.424;2023-04-06T06:28:09;101660.00;;;5.22;65.16
76694;BME280;65625;52.136;5.424;2023-04-06T06:30:36;101667.91;;;5.26;65.13
76694;BME280;65625;52.136;5.424;2023-04-06T06:33:03;101657.91;;;5.31;65.25
76694;BME280;65625;52.136;5.424;2023-04-06T06:35:30;101654.91;;;5.38;66.39
76694;BME280;65625;52.136;5.424;2023-04-06T06:38:00;101658.94;;;5.48;65.73
76694;BME280;65625;52.136;5.424;2023-04-06T06:40:27;101659.19;;;5.64;65.27
76694;BME280;65625;52.136;5.424;2023-04-06T06:42:54;101658.59;;;5.77;65.58
76694;BME280;65625;52.136;5.424;2023-04-06T06:45:26;101657.91;;;5.94;64.22
76694;BME280;65625;52.136;5.424;2023-04-06T06:47:53;101655.03;;;6.18;64.10
76694;BME280;65625;52.136;5.424;2023-04-06T06:50:21;101658.28;;;6.45;64.37
76694;BME280;65625;52.136;5.424;2023-04-06T06:52:47;101652.50;;;6.73;63.59
76694;BME280;65625;52.136;5.424;2023-04-06T06:55:14;101654.41;;;7.08;62.64
76694;BME280;65625;52.136;5.424;2023-04-06T06:57:41;101644.50;;;7.45;61.35
76694;BME280;65625;52.136;5.424;2023-04-06T07:00:09;101653.31;;;8.34;60.23
76694;BME280;65625;52.136;5.424;2023-04-06T07:02:39;101652.06;;;9.05;58.16
76694;BME280;65625;52.136;5.424;2023-04-06T07:05:06;101651.19;;;9.05;57.09
76694;BME280;65625;52.136;5.424;2023-04-06T07:07:52;101647.75;;;8.54;57.43
76694;BME280;65625;52.136;5.424;2023-04-06T07:10:18;101644.28;;;8.01;58.29
76694;BME280;65625;52.136;5.424;2023-04-06T07:12:45;101646.88;;;7.68;59.65
76694;BME280;65625;52.136;5.424;2023-04-06T07:15:12;101647.34;;;7.42;60.74
76694;BME280;65625;52.136;5.424;2023-04-06T07:17:39;101636.31;;;7.30;60.83
76694;BME280;65625;52.136;5.424;2023-04-06T07:20:08;101627.91;;;7.19;60.75
76694;BME280;65625;52.136;5.424;2023-04-06T07:22:34;101637.13;;;7.13;61.61
76694;BME280;65625;52.136;5.424;2023-04-06T07:25:01;101635.53;;;7.09;61.81
76694;BME280;65625;52.136;5.424;2023-04-06T07:27:28;101636.06;;;6.99;60.98
76694;BME280;65625;52.136;5.424;2023-04-06T07:29:54;101626.72;;;6.89;60.94
76694;BME280;65625;52.136;5.424;2023-04-06T07:32:23;101638.38;;;6.88;61.59
76694;BME280;65625;52.136;5.424;2023-04-06T07:34:49;101633.16;;;6.85;60.84
76694;BME280;65625;52.136;5.424;2023-04-06T07:37:16;101629.47;;;6.87;60.65
76694;BME280;65625;52.136;5.424;2023-04-06T07:39:43;101634.69;;;6.90;61.05
76694;BME280;65625;52.136;5.424;2023-04-06T07:42:10;101636.34;;;6.93;61.35
76694;BME280;65625;52.136;5.424;2023-04-06T07:44:36;101632.72;;;6.94;61.13
76694;BME280;65625;52.136;5.424;2023-04-06T07:47:03;101637.63;;;7.03;61.08
76694;BME280;65625;52.136;5.424;2023-04-06T07:49:30;101638.22;;;7.09;61.56
76694;BME280;65625;52.136;5.424;2023-04-06T07:51:56;101634.22;;;7.18;60.26
76694;BME280;65625;52.136;5.424;2023-04-06T07:54:23;101636.06;;;7.17;60.41
76694;BME280;65625;52.136;5.424;2023-04-06T07:56:49;101624.13;;;7.23;60.52
76694;BME280;65625;52.136;5.424;2023-04-06T07:59:16;101635.06;;;7.37;61.30
76694;BME280;65625;52.136;5.424;2023-04-06T08:01:42;101632.78;;;7.46;60.41
76694;BME280;65625;52.136;5.424;2023-04-06T08:04:09;101641.19;;;7.57;60.16
76694;BME280;65625;52.136;5.424;2023-04-06T08:06:36;101639.22;;;7.78;60.69
76694;BME280;65625;52.136;5.424;2023-04-06T08:09:02;101639.00;;;8.00;59.77
76694;BME280;65625;52.136;5.424;2023-04-06T08:11:29;101629.41;;;8.11;59.70
76694;BME280;65625;52.136;5.424;2023-04-06T08:13:56;101634.47;;;8.17;59.27
76694;BME280;65625;52.136;5.424;2023-04-06T08:16:24;101632.41;;;8.22;59.20
76694;BME280;65625;52.136;5.424;2023-04-06T08:18:50;101632.59;;;8.19;58.63
76694;BME280;65625;52.136;5.424;2023-04-06T08:21:17;101633.31;;;8.23;58.32
76694;BME280;65625;52.136;5.424;2023-04-06T08:23:44;101634.88;;;8.27;58.62
76694;BME280;65625;52.136;5.424;2023-04-06T08:26:12;101637.81;;;8.39;58.59
76694;BME280;65625;52.136;5.424;2023-04-06T08:28:39;101630.03;;;8.50;58.37
76694;BME280;65625;52.136;5.424;2023-04-06T08:31:05;101631.59;;;8.54;58.29
76694;BME280;65625;52.136;5.424;2023-04-06T08:33:35;101632.28;;;8.58;58.38
76694;BME280;65625;52.136;5.424;2023-04-06T08:36:13;101629.38;;;8.62;58.19
76694;BME280;65625;52.136;5.424;2023-04-06T08:38:41;101628.59;;;8.76;58.37
76694;BME280;65625;52.136;5.424;2023-04-06T08:41:12;101625.47;;;8.83;57.81
76694;BME280;65625;52.136;5.424;2023-04-06T08:43:43;101623.22;;;8.76;57.87
76694;BME280;65625;52.136;5.424;2023-04-06T08:46:11;101619.31;;;8.66;58.01
76694;BME280;65625;52.136;5.424;2023-04-06T08:48:42;101627.28;;;8.67;58.29
76694;BME280;65625;52.136;5.424;2023-04-06T08:51:09;101625.75;;;8.79;58.62
76694;BME280;65625;52.136;5.424;2023-04-06T08:53:37;101619.91;;;8.86;59.02
76694;BME280;65625;52.136;5.424;2023-04-06T08:56:04;101615.75;;;8.96;58.38
76694;BME280;65625;52.136;5.424;2023-04-06T08:58:35;101622.63;;;9.02;58.30
76694;BME280;65625;52.136;5.424;2023-04-06T09:01:08;101621.75;;;9.02;58.11
76694;BME280;65625;52.136;5.424;2023-04-06T09:03:39;101620.47;;;9.09;58.44
76694;BME280;65625;52.136;5.424;2023-04-06T09:06:08;101628.78;;;9.20;58.27
76694;BME280;65625;52.136;5.424;2023-04-06T09:08:38;101620.63;;;9.21;58.34
76694;BME280;65625;52.136;5.424;2023-04-06T09:11:04;101622.00;;;9.28;58.30
76694;BME280;65625;52.136;5.424;2023-04-06T09:13:31;101626.25;;;9.48;57.90
76694;BME280;65625;52.136;5.424;2023-04-06T09:16:05;101619.81;;;9.80;56.86
76694;BME280;65625;52.136;5.424;2023-04-06T09:18:33;101617.50;;;9.74;56.40
76694;BME280;65625;52.136;5.424;2023-04-06T09:21:04;101625.72;;;9.86;56.36
76694;BME280;65625;52.136;5.424;2023-04-06T09:23:31;101616.63;;;10.03;56.73
76694;BME280;65625;52.136;5.424;2023-04-06T09:28:46;101616.97;;;10.27;55.86
76694;BME280;65625;52.136;5.424;2023-04-06T09:31:15;101627.88;;;10.25;56.06
76694;BME280;65625;52.136;5.424;2023-04-06T09:33:44;101623.06;;;10.30;56.33
76694;BME280;65625;52.136;5.424;2023-04-06T09:36:12;101616.00;;;10.13;56.34
76694;BME280;65625;52.136;5.424;2023-04-06T09:38:55;101619.84;;;10.09;56.59
76694;BME280;65625;52.136;5.424;2023-04-06T09:41:29;101618.59;;;10.15;56.38
76694;BME280;65625;52.136;5.424;2023-04-06T09:44:04;101613.09;;;10.16;56.44
76694;BME280;65625;52.136;5.424;2023-04-06T09:46:33;101619.19;;;10.20;56.95
76694;BME280;65625;52.136;5.424;2023-04-06T09:49:21;101624.03;;;10.43;56.45
76694;BME280;65625;52.136;5.424;2023-04-06T09:51:56;101629.34;;;10.45;56.89
76694;BME280;65625;52.136;5.424;2023-04-06T09:54:24;101633.38;;;10.52;56.30
76694;BME280;65625;52.136;5.424;2023-04-06T09:57:09;101618.44;;;10.60;57.14
76694;BME280;65625;52.136;5.424;2023-04-06T10:00:03;101626.81;;;10.84;56.75
76694;BME280;65625;52.136;5.424;2023-04-06T10:02:54;101610.66;;;11.10;57.54
76694;BME280;65625;52.136;5.424;2023-04-06T10:05:30;101619.47;;;11.40;57.75
76694;BME280;65625;52.136;5.424;2023-04-06T10:08:04;101617.97;;;11.36;56.52
76694;BME280;65625;52.136;5.424;2023-04-06T10:10:33;101611.97;;;11.31;57.56
76694;BME280;65625;52.136;5.424;2023-04-06T10:12:59;101612.47;;;11.24;57.53
76694;BME280;65625;52.136;5.424;2023-04-06T10:15:28;101608.06;;;11.09;58.83
76694;BME280;65625;52.136;5.424;2023-04-06T10:17:55;101621.09;;;11.16;58.51
76694;BME280;65625;52.136;5.424;2023-04-06T10:23:12;101631.50;;;11.22;60.46
76694;BME280;65625;52.136;5.424;2023-04-06T10:25:56;101617.00;;;11.23;61.05
76694;BME280;65625;52.136;5.424;2023-04-06T10:28:23;101623.44;;;11.35;62.64
76694;BME280;65625;52.136;5.424;2023-04-06T10:30:57;101618.91;;;11.35;61.73
76694;BME280;65625;52.136;5.424;2023-04-06T10:33:24;101616.25;;;11.21;62.24
76694;BME280;65625;52.136;5.424;2023-04-06T10:35:51;101619.88;;;10.94;61.84
76694;BME280;65625;52.136;5.424;2023-04-06T10:38:19;101615.91;;;10.85;63.91
76694;BME280;65625;52.136;5.424;2023-04-06T10:40:48;101624.72;;;10.75;64.61
76694;BME280;65625;52.136;5.424;2023-04-06T10:43:19;101621.81;;;10.64;66.98
76694;BME280;65625;52.136;5.424;2023-04-06T10:45:57;101625.38;;;10.50;67.46
76694;BME280;65625;52.136;5.424;2023-04-06T10:48:42;101620.94;;;10.35;69.44
76694;BME280;65625;52.136;5.424;2023-04-06T10:51:14;101616.81;;;10.30;70.49
76694;BME280;65625;52.136;5.424;2023-04-06T10:53:42;101621.13;;;10.18;70.37
76694;BME280;65625;52.136;5.424;2023-04-06T10:56:11;101622.97;;;10.02;71.66
76694;BME280;65625;52.136;5.424;2023-04-06T10:58:38;101622.94;;;9.88;72.87
76694;BME280;65625;52.136;5.424;2023-04-06T11:01:10;101615.69;;;9.74;73.73
76694;BME280;65625;52.136;5.424;2023-04-06T11:03:49;101616.41;;;9.62;74.47
76694;BME280;65625;52.136;5.424;2023-04-06T11:06:21;101615.81;;;9.42;75.58
76694;BME280;65625;52.136;5.424;2023-04-06T11:08:48;101610.91;;;9.34;76.80
76694;BME280;65625;52.136;5.424;2023-04-06T11:11:20;101613.59;;;9.34;76.85
76694;BME280;65625;52.136;5.424;2023-04-06T11:13:50;101616.63;;;9.28;76.63
76694;BME280;65625;52.136;5.424;2023-04-06T11:16:21;101604.53;;;9.20;77.81
76694;BME280;65625;52.136;5.424;2023-04-06T11:18:50;101607.78;;;9.26;79.17
76694;BME280;65625;52.136;5.424;2023-04-06T11:21:18;101608.72;;;9.25;79.40
76694;BME280;65625;52.136;5.424;2023-04-06T11:23:44;101607.41;;;9.17;79.14
76694;BME280;65625;52.136;5.424;2023-04-06T11:26:14;101605.50;;;9.19;79.57
76694;BME280;65625;52.136;5.424;2023-04-06T11:28:41;101603.25;;;9.27;80.34
76694;BME280;65625;52.136;5.424;2023-04-06T11:31:10;101601.50;;;9.26;79.82
76694;BME280;65625;52.136;5.424;2023-04-06T11:33:38;101593.00;;;9.18;79.56
76694;BME280;65625;52.136;5.424;2023-04-06T11:36:05;101599.00;;;9.23;79.92
76694;BME280;65625;52.136;5.424;2023-04-06T11:38:33;101591.53;;;9.28;79.92
76694;BME280;65625;52.136;5.424;2023-04-06T11:41:01;101594.47;;;9.23;80.58
76694;BME280;65625;52.136;5.424;2023-04-06T11:43:32;101589.63;;;9.14;81.04
76694;BME280;65625;52.136;5.424;2023-04-06T11:46:02;101589.25;;;9.05;81.13
76694;BME280;65625;52.136;5.424;2023-04-06T11:48:30;101585.13;;;8.99;80.49
76694;BME280;65625;52.136;5.424;2023-04-06T11:50:58;101579.44;;;8.88;81.01
76694;BME280;65625;52.136;5.424;2023-04-06T11:53:28;101572.53;;;9.00;81.09
76694;BME280;65625;52.136;5.424;2023-04-06T11:55:56;101585.16;;;9.13;81.08
76694;BME280;65625;52.136;5.424;2023-04-06T11:58:22;101571.28;;;9.05;80.38
76694;BME280;65625;52.136;5.424;2023-04-06T12:00:50;101576.59;;;9.07;80.69
76694;BME280;65625;52.136;5.424;2023-04-06T12:03:17;101578.34;;;9.08;80.18
76694;BME280;65625;52.136;5.424;2023-04-06T12:05:44;101565.81;;;9.07;80.49
76694;BME280;65625;52.136;5.424;2023-04-06T12:08:11;101567.56;;;9.08;80.62
76694;BME280;65625;52.136;5.424;2023-04-06T12:10:38;101568.25;;;9.11;81.31
76694;BME280;65625;52.136;5.424;2023-04-06T12:13:04;101567.19;;;9.14;80.36
76694;BME280;65625;52.136;5.424;2023-04-06T12:15:31;101565.91;;;9.05;80.34
76694;BME280;65625;52.136;5.424;2023-04-06T12:17:58;101562.00;;;8.95;80.67
76694;BME280;65625;52.136;5.424;2023-04-06T12:20:24;101566.44;;;8.96;81.12
76694;BME280;65625;52.136;5.424;2023-04-06T12:22:53;101564.00;;;9.07;81.36
76694;BME280;65625;52.136;5.424;2023-04-06T12:25:19;101559.03;;;9.15;81.44
76694;BME280;65625;52.136;5.424;2023-04-06T12:27:46;101556.16;;;9.18;81.09
76694;BME280;65625;52.136;5.424;2023-04-06T12:30:13;101557.03;;;9.19;81.20
76694;BME280;65625;52.136;5.424;2023-04-06T12:32:40;101556.59;;;9.11;81.98
76694;BME280;65625;52.136;5.424;2023-04-06T12:35:07;101556.69;;;9.09;82.03
76694;BME280;65625;52.136;5.424;2023-04-06T12:37:35;101548.97;;;9.03;82.51
76694;BME280;65625;52.136;5.424;2023-04-06T12:40:01;101552.47;;;8.89;82.55
76694;BME280;65625;52.136;5.424;2023-04-06T12:42:29;101547.59;;;8.80;82.85
76694;BME280;65625;52.136;5.424;2023-04-06T12:44:55;101546.09;;;8.75;83.07
76694;BME280;65625;52.136;5.424;2023-04-06T12:47:22;101553.47;;;8.71;83.57
76694;BME280;65625;52.136;5.424;2023-04-06T12:49:49;101550.34;;;8.63;84.16
76694;BME280;65625;52.136;5.424;2023-04-06T12:52:16;101552.63;;;8.55;84.77
76694;BME280;65625;52.136;5.424;2023-04-06T12:54:43;101549.84;;;8.57;85.03
76694;BME280;65625;52.136;5.424;2023-04-06T12:57:09;101549.84;;;8.57;84.99
76694;BME280;65625;52.136;5.424;2023-04-06T12:59:36;101528.66;;;8.66;85.33
76694;BME280;65625;52.136;5.424;2023-04-06T13:02:04;101529.53;;;8.67;84.62
76694;BME280;65625;52.136;5.424;2023-04-06T13:04:31;101524.25;;;8.65;84.66
76694;BME280;65625;52.136;5.424;2023-04-06T13:06:57;101525.22;;;8.64;84.73
76694;BME280;65625;52.136;5.424;2023-04-06T13:09:24;101533.78;;;8.55;84.68
76694;BME280;65625;52.136;5.424;2023-04-06T13:11:50;101529.53;;;8.67;85.72
76694;BME280;65625;52.136;5.424;2023-04-06T13:14:17;101529.34;;;8.70;85.61
76694;BME280;65625;52.136;5.424;2023-04-06T13:16:43;101522.25;;;8.69;85.36